createdAt,value
2018-02-04T00:00:09.183Z,6.8
2018-02-04T00:01:11.885Z,6.9
2018-02-04T00:02:14.322Z,6.9
2018-02-04T00:03:17.029Z,6.9
2018-02-04T00:04:19.747Z,6.9
2018-02-04T00:05:22.177Z,6.9
2018-02-04T00:06:24.591Z,6.8
2018-02-04T00:07:27.016Z,6.8
2018-02-04T00:08:29.453Z,6.8
2018-02-04T00:09:31.876Z,6.8
2018-02-04T00:10:34.294Z,6.8
2018-02-04T00:11:37.010Z,6.7
2018-02-04T00:12:39.428Z,6.7
2018-02-04T00:13:41.864Z,6.7
2018-02-04T00:14:44.293Z,6.7
2018-02-04T00:15:46.712Z,6.7
2018-02-04T00:16:49.138Z,6.7
2018-02-04T00:17:51.835Z,6.7
2018-02-04T00:18:54.263Z,6.8
2018-02-04T00:19:56.696Z,6.8
2018-02-04T00:20:59.405Z,6.8
2018-02-04T00:22:02.104Z,6.8
2018-02-04T00:23:04.538Z,6.8
2018-02-04T00:24:06.961Z,6.8
2018-02-04T00:25:09.668Z,6.9
2018-02-04T00:26:12.093Z,6.8
2018-02-04T00:27:14.511Z,6.8
2018-02-04T00:28:16.938Z,6.8
2018-02-04T00:29:19.358Z,6.9
2018-02-04T00:30:22.072Z,6.9
2018-02-04T00:31:24.775Z,6.9
2018-02-04T00:32:27.194Z,6.9
2018-02-04T00:33:29.631Z,6.9
2018-02-04T00:34:32.061Z,6.9
2018-02-04T00:35:34.481Z,6.9
2018-02-04T00:36:36.903Z,6.9
2018-02-04T00:37:39.321Z,6.8
2018-02-04T00:38:41.745Z,6.8
2018-02-04T00:39:44.481Z,6.9
2018-02-04T00:40:46.897Z,6.9
2018-02-04T00:41:49.322Z,6.9
2018-02-04T00:42:51.753Z,6.9
2018-02-04T00:43:54.170Z,6.9
2018-02-04T00:44:56.605Z,6.9
2018-02-04T00:45:59.029Z,7
2018-02-04T00:47:01.753Z,7
2018-02-04T00:48:04.191Z,7
2018-02-04T00:49:06.893Z,7
2018-02-04T00:50:09.319Z,7
2018-02-04T00:51:12.031Z,7.1
2018-02-04T00:52:14.450Z,7.1
2018-02-04T00:53:16.874Z,7.1
2018-02-04T00:54:19.312Z,7.1
2018-02-04T00:55:21.731Z,7.1
2018-02-04T00:56:24.145Z,7.2
2018-02-04T00:57:26.850Z,7.1
2018-02-04T00:58:29.288Z,7.1
2018-02-04T00:59:32.018Z,7.1
2018-02-04T01:00:34.730Z,7.1
2018-02-04T01:01:37.730Z,7.1
2018-02-04T01:02:40.153Z,7.1
2018-02-04T01:03:42.589Z,7.2
2018-02-04T01:04:45.015Z,7.2
2018-02-04T01:05:47.423Z,7.2
2018-02-04T01:06:49.854Z,7.2
2018-02-04T01:07:52.570Z,7.2
2018-02-04T01:08:55.003Z,7.2
2018-02-04T01:09:57.433Z,7.2
2018-02-04T01:10:59.840Z,7.2
2018-02-04T01:12:02.265Z,7.3
2018-02-04T01:13:04.701Z,7.3
2018-02-04T01:14:07.124Z,7.3
2018-02-04T01:15:09.550Z,7.3
2018-02-04T01:16:11.979Z,7.3
2018-02-04T01:17:14.404Z,7.3
2018-02-04T01:18:16.834Z,7.3
2018-02-04T01:19:19.262Z,7.3
2018-02-04T01:20:21.676Z,7.3
2018-02-04T01:21:24.108Z,7.3
2018-02-04T01:22:26.530Z,7.3
2018-02-04T01:23:29.238Z,7.3
2018-02-04T01:24:31.655Z,7.3
2018-02-04T01:25:34.085Z,7.3
2018-02-04T01:26:36.508Z,7.2
2018-02-04T01:27:38.928Z,7.2
2018-02-04T01:28:41.352Z,7.2
2018-02-04T01:29:43.781Z,7.1
2018-02-04T01:30:46.201Z,7.1
2018-02-04T01:31:48.624Z,7.1
2018-02-04T01:32:51.060Z,7
2018-02-04T01:33:53.480Z,7
2018-02-04T01:34:55.909Z,7
2018-02-04T01:35:58.615Z,7
2018-02-04T01:37:01.038Z,7
2018-02-04T01:38:03.470Z,7
2018-02-04T01:39:05.901Z,7
2018-02-04T01:40:08.329Z,7
2018-02-04T01:41:10.750Z,7
2018-02-04T01:42:13.173Z,7.1
2018-02-04T01:43:15.599Z,7
2018-02-04T01:44:18.038Z,7.1
2018-02-04T01:45:20.466Z,7.1
2018-02-04T01:46:22.878Z,7.1
2018-02-04T01:47:25.311Z,7.1
2018-02-04T01:48:27.733Z,7.1
2018-02-04T01:49:30.163Z,7.1
2018-02-04T01:50:32.870Z,7.1
2018-02-04T01:51:35.284Z,7.1
2018-02-04T01:52:37.716Z,7.1
2018-02-04T01:53:40.142Z,7.1
2018-02-04T01:54:42.579Z,7.1
2018-02-04T01:55:44.999Z,7.2
2018-02-04T01:56:47.423Z,7.2
2018-02-04T01:57:49.852Z,7.2
2018-02-04T01:58:52.273Z,7.2
2018-02-04T01:59:54.690Z,7.2
2018-02-04T02:00:57.121Z,7.2
2018-02-04T02:01:59.535Z,7.2
2018-02-04T02:03:01.974Z,7.2
2018-02-04T02:04:04.398Z,7.2
2018-02-04T02:05:07.105Z,7.2
2018-02-04T02:06:09.813Z,7.2
2018-02-04T02:07:12.242Z,7.2
2018-02-04T02:08:14.657Z,7.2
2018-02-04T02:09:17.374Z,7.2
2018-02-04T02:10:19.787Z,7.2
2018-02-04T02:11:22.208Z,7.2
2018-02-04T02:12:24.650Z,7.2
2018-02-04T02:13:27.370Z,7.3
2018-02-04T02:14:29.824Z,7.3
2018-02-04T02:15:32.232Z,7.3
2018-02-04T02:16:34.656Z,7.3
2018-02-04T02:17:37.367Z,7.3
2018-02-04T02:18:39.791Z,7.3
2018-02-04T02:19:42.206Z,7.3
2018-02-04T02:20:44.634Z,7.3
2018-02-04T02:21:47.059Z,7.3
2018-02-04T02:22:49.487Z,7.3
2018-02-04T02:23:51.907Z,7.3
2018-02-04T02:24:54.349Z,7.3
2018-02-04T02:25:56.774Z,7.2
2018-02-04T02:26:59.186Z,7.2
2018-02-04T02:28:01.619Z,7.2
2018-02-04T02:29:04.066Z,7.2
2018-02-04T02:30:06.490Z,7.2
2018-02-04T02:31:08.914Z,7.2
2018-02-04T02:32:11.334Z,7.2
2018-02-04T02:33:13.759Z,7.3
2018-02-04T02:34:16.203Z,7.2
2018-02-04T02:35:18.908Z,7.2
2018-02-04T02:36:21.602Z,7.2
2018-02-04T02:37:24.311Z,7.2
2018-02-04T02:38:26.732Z,7.2
2018-02-04T02:39:29.160Z,7.2
2018-02-04T02:40:31.581Z,7.3
2018-02-04T02:41:34.018Z,7.2
2018-02-04T02:42:36.451Z,7.3
2018-02-04T02:43:38.879Z,7.3
2018-02-04T02:44:41.298Z,7.3
2018-02-04T02:45:43.721Z,7.3
2018-02-04T02:46:46.152Z,7.3
2018-02-04T02:47:48.570Z,7.3
2018-02-04T02:48:50.999Z,7.3
2018-02-04T02:49:53.422Z,7.3
2018-02-04T02:50:55.845Z,7.3
2018-02-04T02:51:58.279Z,7.3
2018-02-04T02:53:00.705Z,7.3
2018-02-04T02:54:03.132Z,7.2
2018-02-04T02:55:06.147Z,7.3
2018-02-04T02:56:08.570Z,7.3
2018-02-04T02:57:10.999Z,7.3
2018-02-04T02:58:13.408Z,7.2
2018-02-04T02:59:15.834Z,7.2
2018-02-04T03:00:18.267Z,7.2
2018-02-04T03:01:20.687Z,7.2
2018-02-04T03:02:23.117Z,7.2
2018-02-04T03:03:25.542Z,7.2
2018-02-04T03:04:27.972Z,7.2
2018-02-04T03:05:30.404Z,7.2
2018-02-04T03:06:32.829Z,7.2
2018-02-04T03:07:35.514Z,7.2
2018-02-04T03:08:38.226Z,7.2
2018-02-04T03:09:40.934Z,7.2
2018-02-04T03:10:43.353Z,7.2
2018-02-04T03:11:45.781Z,7.2
2018-02-04T03:12:48.209Z,7.2
2018-02-04T03:13:51.206Z,7.2
2018-02-04T03:14:53.631Z,7.2
2018-02-04T03:15:56.055Z,7.2
2018-02-04T03:16:58.485Z,7.2
2018-02-04T03:18:00.912Z,7.2
2018-02-04T03:19:03.341Z,7.2
2018-02-04T03:20:05.767Z,7.2
2018-02-04T03:21:08.196Z,7.2
2018-02-04T03:22:10.617Z,7.2
2018-02-04T03:23:13.036Z,7.3
2018-02-04T03:24:15.467Z,7.2
2018-02-04T03:25:17.891Z,7.2
2018-02-04T03:26:20.315Z,7.2
2018-02-04T03:27:22.786Z,7.2
2018-02-04T03:28:25.158Z,7.2
2018-02-04T03:29:27.872Z,7.3
2018-02-04T03:30:30.584Z,7.3
2018-02-04T03:31:32.998Z,7.3
2018-02-04T03:32:35.704Z,7.2
2018-02-04T03:33:38.132Z,7.3
2018-02-04T03:34:40.563Z,7.3
2018-02-04T03:35:43.285Z,7.3
2018-02-04T03:36:45.708Z,7.3
2018-02-04T03:37:48.132Z,7.3
2018-02-04T03:38:50.543Z,7.3
2018-02-04T03:39:53.249Z,7.3
2018-02-04T03:40:55.673Z,7.3
2018-02-04T03:41:58.091Z,7.3
2018-02-04T03:43:00.528Z,7.3
2018-02-04T03:44:02.953Z,7.3
2018-02-04T03:45:05.369Z,7.3
2018-02-04T03:46:07.798Z,7.3
2018-02-04T03:47:10.222Z,7.3
2018-02-04T03:48:12.646Z,7.3
2018-02-04T03:49:15.074Z,7.3
2018-02-04T03:50:17.491Z,7.3
2018-02-04T03:51:19.915Z,7.3
2018-02-04T03:52:22.344Z,7.3
2018-02-04T03:53:24.767Z,7.3
2018-02-04T03:54:27.187Z,7.3
2018-02-04T03:55:29.603Z,7.3
2018-02-04T03:56:32.024Z,7.3
2018-02-04T03:57:34.744Z,7.2
2018-02-04T03:58:37.725Z,7.2
2018-02-04T03:59:40.431Z,7.2
2018-02-04T04:00:42.861Z,7.2
2018-02-04T04:01:45.285Z,7.3
2018-02-04T04:02:47.709Z,7.2
2018-02-04T04:03:50.134Z,7.2
2018-02-04T04:04:52.548Z,7.2
2018-02-04T04:05:54.979Z,7.2
2018-02-04T04:06:57.715Z,7.2
2018-02-04T04:08:00.134Z,7.2
2018-02-04T04:09:02.565Z,7.2
2018-02-04T04:10:04.993Z,7.2
2018-02-04T04:11:07.409Z,7.2
2018-02-04T04:12:09.841Z,7.2
2018-02-04T04:13:12.273Z,7.2
2018-02-04T04:14:14.701Z,7.2
2018-02-04T04:15:17.417Z,7.2
2018-02-04T04:16:20.137Z,7.2
2018-02-04T04:17:22.562Z,7.2
2018-02-04T04:18:24.998Z,7.2
2018-02-04T04:19:27.422Z,7.3
2018-02-04T04:20:29.841Z,7.2
2018-02-04T04:21:32.262Z,7.3
2018-02-04T04:22:34.696Z,7.3
2018-02-04T04:23:37.400Z,7.3
2018-02-04T04:24:39.820Z,7.3
2018-02-04T04:25:42.248Z,7.3
2018-02-04T04:26:44.674Z,7.3
2018-02-04T04:27:47.410Z,7.3
2018-02-04T04:28:49.836Z,7.3
2018-02-04T04:29:52.247Z,7.3
2018-02-04T04:30:54.680Z,7.3
2018-02-04T04:31:57.106Z,7.3
2018-02-04T04:32:59.521Z,7.3
2018-02-04T04:34:02.237Z,7.3
2018-02-04T04:35:04.668Z,7.3
2018-02-04T04:36:07.379Z,7.3
2018-02-04T04:37:09.812Z,7.3
2018-02-04T04:38:12.232Z,7.3
2018-02-04T04:39:14.657Z,7.3
2018-02-04T04:40:17.093Z,7.3
2018-02-04T04:41:19.512Z,7.3
2018-02-04T04:42:21.942Z,7.3
2018-02-04T04:43:24.360Z,7.2
2018-02-04T04:44:26.791Z,7.2
2018-02-04T04:45:29.204Z,7.2
2018-02-04T04:46:31.630Z,7.2
2018-02-04T04:47:34.047Z,7.2
2018-02-04T04:48:36.756Z,7.2
2018-02-04T04:49:39.184Z,7.2
2018-02-04T04:50:41.612Z,7.2
2018-02-04T04:51:44.025Z,7.2
2018-02-04T04:52:46.455Z,7.2
2018-02-04T04:53:48.874Z,7.2
2018-02-04T04:54:51.307Z,7.2
2018-02-04T04:55:53.723Z,7.2
2018-02-04T04:56:56.159Z,7.2
2018-02-04T04:57:58.871Z,7.2
2018-02-04T04:59:01.290Z,7.2
2018-02-04T05:00:03.718Z,7.2
2018-02-04T05:01:06.138Z,7.2
2018-02-04T05:02:08.567Z,7.2
2018-02-04T05:03:10.996Z,7.2
2018-02-04T05:04:13.414Z,7.2
2018-02-04T05:05:16.142Z,7.2
2018-02-04T05:06:18.582Z,7.2
2018-02-04T05:07:21.006Z,7.2
2018-02-04T05:08:23.445Z,7.2
2018-02-04T05:09:26.209Z,7.2
2018-02-04T05:10:28.633Z,7.2
2018-02-04T05:11:31.053Z,7.1
2018-02-04T05:12:33.480Z,7.1
2018-02-04T05:13:35.893Z,7.1
2018-02-04T05:14:38.323Z,7.1
2018-02-04T05:15:40.730Z,7.1
2018-02-04T05:16:43.156Z,7
2018-02-04T05:17:45.572Z,7
2018-02-04T05:18:48.310Z,7
2018-02-04T05:19:50.735Z,7
2018-02-04T05:20:53.168Z,6.9
2018-02-04T05:21:56.152Z,6.9
2018-02-04T05:22:58.574Z,6.9
2018-02-04T05:24:00.992Z,6.9
2018-02-04T05:25:03.415Z,6.9
2018-02-04T05:26:05.838Z,6.9
2018-02-04T05:27:08.264Z,6.9
2018-02-04T05:28:10.700Z,6.9
2018-02-04T05:29:13.120Z,6.8
2018-02-04T05:30:15.544Z,6.8
2018-02-04T05:31:17.972Z,6.8
2018-02-04T05:32:20.405Z,6.8
2018-02-04T05:33:22.822Z,6.8
2018-02-04T05:34:25.259Z,6.8
2018-02-04T05:35:27.670Z,6.8
2018-02-04T05:36:30.101Z,6.7
2018-02-04T05:37:32.529Z,6.7
2018-02-04T05:38:34.949Z,6.7
2018-02-04T05:39:37.380Z,6.6
2018-02-04T05:40:39.802Z,6.6
2018-02-04T05:41:42.216Z,6.6
2018-02-04T05:42:44.641Z,6.6
2018-02-04T05:43:47.065Z,6.6
2018-02-04T05:44:49.492Z,6.6
2018-02-04T05:45:51.914Z,6.6
2018-02-04T05:46:54.326Z,6.5
2018-02-04T05:47:56.749Z,6.5
2018-02-04T05:48:59.188Z,6.5
2018-02-04T05:50:01.612Z,6.5
2018-02-04T05:51:04.027Z,6.5
2018-02-04T05:52:06.732Z,6.5
2018-02-04T05:53:09.155Z,6.5
2018-02-04T05:54:11.584Z,6.4
2018-02-04T05:55:14.006Z,6.4
2018-02-04T05:56:16.419Z,6.4
2018-02-04T05:57:18.849Z,6.4
2018-02-04T05:58:21.273Z,6.4
2018-02-04T05:59:23.694Z,6.4
2018-02-04T06:00:26.118Z,6.3
2018-02-04T06:01:28.839Z,6.3
2018-02-04T06:02:31.260Z,6.3
2018-02-04T06:03:33.982Z,6.3
2018-02-04T06:04:36.400Z,6.3
2018-02-04T06:05:38.819Z,6.3
2018-02-04T06:06:41.526Z,6.3
2018-02-04T06:07:44.260Z,6.3
2018-02-04T06:08:46.967Z,6.3
2018-02-04T06:09:49.669Z,6.3
2018-02-04T06:10:52.080Z,6.3
2018-02-04T06:11:54.788Z,6.3
2018-02-04T06:12:57.209Z,6.3
2018-02-04T06:13:59.630Z,6.3
2018-02-04T06:15:02.044Z,6.2
2018-02-04T06:16:04.468Z,6.2
2018-02-04T06:17:07.173Z,6.2
2018-02-04T06:18:09.612Z,6.2
2018-02-04T06:19:12.031Z,6.2
2018-02-04T06:20:14.451Z,6.1
2018-02-04T06:21:16.868Z,6.1
2018-02-04T06:22:19.298Z,6.1
2018-02-04T06:23:22.001Z,6.1
2018-02-04T06:24:24.421Z,6
2018-02-04T06:25:26.857Z,6
2018-02-04T06:26:29.561Z,6
2018-02-04T06:27:31.993Z,6
2018-02-04T06:28:34.429Z,6
2018-02-04T06:29:37.126Z,6
2018-02-04T06:30:39.550Z,6
2018-02-04T06:31:41.992Z,6
2018-02-04T06:32:44.404Z,6
2018-02-04T06:33:46.825Z,6
2018-02-04T06:34:49.241Z,6
2018-02-04T06:35:51.653Z,6.1
2018-02-04T06:36:54.652Z,6.1
2018-02-04T06:37:57.078Z,6.1
2018-02-04T06:38:59.497Z,6.1
2018-02-04T06:40:02.213Z,6.1
2018-02-04T06:41:04.625Z,6.1
2018-02-04T06:42:07.047Z,6.1
2018-02-04T06:43:09.484Z,6
2018-02-04T06:44:11.899Z,6
2018-02-04T06:45:14.323Z,6.1
2018-02-04T06:46:16.757Z,6
2018-02-04T06:47:19.172Z,6
2018-02-04T06:48:21.591Z,6.1
2018-02-04T06:49:24.295Z,6.1
2018-02-04T06:50:26.722Z,6.1
2018-02-04T06:51:29.149Z,6.1
2018-02-04T06:52:31.578Z,6.1
2018-02-04T06:53:34.331Z,6.1
2018-02-04T06:54:36.735Z,6.2
2018-02-04T06:55:39.154Z,6.1
2018-02-04T06:56:41.582Z,6.2
2018-02-04T06:57:44.294Z,6.2
2018-02-04T06:58:46.711Z,6.2
2018-02-04T06:59:49.132Z,6.2
2018-02-04T07:00:51.832Z,6.2
2018-02-04T07:01:54.548Z,6.3
2018-02-04T07:02:57.265Z,6.3
2018-02-04T07:03:59.973Z,6.3
2018-02-04T07:05:02.390Z,6.3
2018-02-04T07:06:05.100Z,6.4
2018-02-04T07:07:07.521Z,6.4
2018-02-04T07:08:09.945Z,6.4
2018-02-04T07:09:12.658Z,6.4
2018-02-04T07:10:15.073Z,6.4
2018-02-04T07:11:17.496Z,6.4
2018-02-04T07:12:19.925Z,6.4
2018-02-04T07:13:22.348Z,6.4
2018-02-04T07:14:24.825Z,6.4
2018-02-04T07:15:27.205Z,6.5
2018-02-04T07:16:29.622Z,6.5
2018-02-04T07:17:32.085Z,6.5
2018-02-04T07:18:34.479Z,6.5
2018-02-04T07:19:36.891Z,6.6
2018-02-04T07:20:39.607Z,6.6
2018-02-04T07:21:42.029Z,6.6
2018-02-04T07:22:44.452Z,6.6
2018-02-04T07:23:46.882Z,6.7
2018-02-04T07:24:49.307Z,6.7
2018-02-04T07:25:51.734Z,6.7
2018-02-04T07:26:54.153Z,6.8
2018-02-04T07:27:56.583Z,6.8
2018-02-04T07:28:59.001Z,6.8
2018-02-04T07:30:01.419Z,6.8
2018-02-04T07:31:03.842Z,6.8
2018-02-04T07:32:06.316Z,6.8
2018-02-04T07:33:08.691Z,6.8
2018-02-04T07:34:11.118Z,6.8
2018-02-04T07:35:13.535Z,6.9
2018-02-04T07:36:15.962Z,6.9
2018-02-04T07:37:18.386Z,6.9
2018-02-04T07:38:20.809Z,6.9
2018-02-04T07:39:23.231Z,6.9
2018-02-04T07:40:25.656Z,6.9
2018-02-04T07:41:28.072Z,6.9
2018-02-04T07:42:30.503Z,6.9
2018-02-04T07:43:32.929Z,7
2018-02-04T07:44:35.350Z,7
2018-02-04T07:45:37.779Z,7
2018-02-04T07:46:40.203Z,7
2018-02-04T07:47:42.625Z,7
2018-02-04T07:48:45.054Z,7
2018-02-04T07:49:47.475Z,7
2018-02-04T07:50:49.904Z,7
2018-02-04T07:51:52.332Z,7.1
2018-02-04T07:52:54.748Z,7.1
2018-02-04T07:53:57.177Z,7.1
2018-02-04T07:54:59.601Z,7.1
2018-02-04T07:56:02.030Z,7.1
2018-02-04T07:57:04.453Z,7.1
2018-02-04T07:58:06.880Z,7.1
2018-02-04T07:59:09.304Z,7.1
2018-02-04T08:00:11.741Z,7.1
2018-02-04T08:01:14.157Z,7.1
2018-02-04T08:02:16.589Z,7.2
2018-02-04T08:03:19.010Z,7.2
2018-02-04T08:04:21.442Z,7.2
2018-02-04T08:05:23.872Z,7.2
2018-02-04T08:06:26.579Z,7.2
2018-02-04T08:07:28.997Z,7.2
2018-02-04T08:08:31.719Z,7.2
2018-02-04T08:09:34.140Z,7.3
2018-02-04T08:10:36.573Z,7.3
2018-02-04T08:11:39.004Z,7.3
2018-02-04T08:12:41.481Z,7.3
2018-02-04T08:13:43.857Z,7.3
2018-02-04T08:14:46.292Z,7.3
2018-02-04T08:15:48.710Z,7.4
2018-02-04T08:16:51.137Z,7.4
2018-02-04T08:17:53.574Z,7.4
2018-02-04T08:18:56.000Z,7.4
2018-02-04T08:19:58.429Z,7.4
2018-02-04T08:21:00.847Z,7.4
2018-02-04T08:22:03.544Z,7.4
2018-02-04T08:23:05.971Z,7.5
2018-02-04T08:24:08.680Z,7.5
2018-02-04T08:25:11.104Z,7.5
2018-02-04T08:26:13.528Z,7.5
2018-02-04T08:27:15.957Z,7.5
2018-02-04T08:28:18.673Z,7.6
2018-02-04T08:29:21.099Z,7.6
2018-02-04T08:30:23.532Z,7.5
2018-02-04T08:31:25.957Z,7.5
2018-02-04T08:32:28.385Z,7.6
2018-02-04T08:33:30.813Z,7.6
2018-02-04T08:34:33.520Z,7.6
2018-02-04T08:35:35.940Z,7.6
2018-02-04T08:36:38.406Z,7.6
2018-02-04T08:37:40.789Z,7.6
2018-02-04T08:38:43.209Z,7.6
2018-02-04T08:39:45.948Z,7.6
2018-02-04T08:40:48.370Z,7.7
2018-02-04T08:41:50.792Z,7.7
2018-02-04T08:42:53.236Z,7.6
2018-02-04T08:43:55.657Z,7.7
2018-02-04T08:44:58.083Z,7.6
2018-02-04T08:46:00.507Z,7.6
2018-02-04T08:47:02.929Z,7.6
2018-02-04T08:48:05.354Z,7.6
2018-02-04T08:49:07.783Z,7.6
2018-02-04T08:50:10.214Z,7.6
2018-02-04T08:51:12.640Z,7.6
2018-02-04T08:52:15.051Z,7.6
2018-02-04T08:53:17.477Z,7.6
2018-02-04T08:54:19.907Z,7.6
2018-02-04T08:55:22.617Z,7.7
2018-02-04T08:56:25.047Z,7.7
2018-02-04T08:57:27.476Z,7.7
2018-02-04T08:58:30.489Z,7.7
2018-02-04T08:59:32.929Z,7.7
2018-02-04T09:00:35.353Z,7.7
2018-02-04T09:01:37.781Z,7.7
2018-02-04T09:02:40.192Z,7.8
2018-02-04T09:03:42.614Z,7.8
2018-02-04T09:04:45.039Z,7.8
2018-02-04T09:05:47.471Z,7.8
2018-02-04T09:06:49.890Z,7.8
2018-02-04T09:07:52.315Z,7.8
2018-02-04T09:08:54.747Z,7.8
2018-02-04T09:09:57.451Z,7.8
2018-02-04T09:10:59.872Z,7.9
2018-02-04T09:12:02.303Z,7.9
2018-02-04T09:13:04.723Z,7.9
2018-02-04T09:14:07.159Z,7.9
2018-02-04T09:15:09.584Z,7.9
2018-02-04T09:16:12.008Z,7.9
2018-02-04T09:17:14.720Z,7.9
2018-02-04T09:18:17.428Z,7.9
2018-02-04T09:19:19.848Z,7.9
2018-02-04T09:20:22.273Z,7.9
2018-02-04T09:21:24.702Z,8
2018-02-04T09:22:27.127Z,8
2018-02-04T09:23:29.543Z,8
2018-02-04T09:24:32.250Z,8
2018-02-04T09:25:34.698Z,8
2018-02-04T09:26:37.119Z,8
2018-02-04T09:27:39.548Z,8.1
2018-02-04T09:28:41.970Z,8.1
2018-02-04T09:29:44.401Z,8.1
2018-02-04T09:30:46.825Z,8.1
2018-02-04T09:31:49.253Z,8.1
2018-02-04T09:32:51.670Z,8.2
2018-02-04T09:33:54.104Z,8.2
2018-02-04T09:34:56.526Z,8.2
2018-02-04T09:35:58.953Z,8.2
2018-02-04T09:37:01.661Z,8.3
2018-02-04T09:38:04.078Z,8.3
2018-02-04T09:39:06.791Z,8.3
2018-02-04T09:40:09.230Z,8.3
2018-02-04T09:41:11.643Z,8.3
2018-02-04T09:42:14.075Z,8.3
2018-02-04T09:43:16.502Z,8.3
2018-02-04T09:44:18.941Z,8.3
2018-02-04T09:45:21.372Z,8.3
2018-02-04T09:46:23.800Z,8.4
2018-02-04T09:47:26.212Z,8.3
2018-02-04T09:48:28.644Z,8.3
2018-02-04T09:49:31.069Z,8.3
2018-02-04T09:50:33.497Z,8.3
2018-02-04T09:51:35.926Z,8.3
2018-02-04T09:52:38.354Z,8.3
2018-02-04T09:53:40.780Z,8.3
2018-02-04T09:54:43.194Z,8.3
2018-02-04T09:55:45.627Z,8.3
2018-02-04T09:56:48.053Z,8.4
2018-02-04T09:57:50.476Z,8.4
2018-02-04T09:58:53.189Z,8.4
2018-02-04T09:59:55.619Z,8.4
2018-02-04T10:00:58.040Z,8.5
2018-02-04T10:02:00.474Z,8.5
2018-02-04T10:03:02.897Z,8.5
2018-02-04T10:04:05.606Z,8.5
2018-02-04T10:05:08.033Z,8.6
2018-02-04T10:06:10.736Z,8.5
2018-02-04T10:07:13.456Z,8.6
2018-02-04T10:08:16.455Z,8.6
2018-02-04T10:09:19.159Z,8.6
2018-02-04T10:10:21.589Z,8.6
2018-02-04T10:11:24.012Z,8.6
2018-02-04T10:12:26.439Z,8.5
2018-02-04T10:13:29.208Z,8.5
2018-02-04T10:14:31.654Z,8.5
2018-02-04T10:15:34.066Z,8.5
2018-02-04T10:16:36.490Z,8.6
2018-02-04T10:17:38.966Z,8.6
2018-02-04T10:18:41.357Z,8.6
2018-02-04T10:19:43.788Z,8.6
2018-02-04T10:20:46.221Z,8.7
2018-02-04T10:21:48.938Z,8.7
2018-02-04T10:22:51.354Z,8.7
2018-02-04T10:23:53.781Z,8.8
2018-02-04T10:24:56.493Z,8.8
2018-02-04T10:25:58.920Z,8.8
2018-02-04T10:27:01.637Z,8.8
2018-02-04T10:28:04.071Z,8.9
2018-02-04T10:29:06.791Z,8.9
2018-02-04T10:30:09.514Z,8.9
2018-02-04T10:31:12.247Z,8.9
2018-02-04T10:32:20.897Z,9
2018-02-04T10:33:23.550Z,9
2018-02-04T10:34:25.928Z,9
2018-02-04T10:35:28.307Z,9
2018-02-04T10:36:30.678Z,9
2018-02-04T10:37:33.335Z,9
2018-02-04T10:38:35.713Z,9.1
2018-02-04T10:39:38.076Z,9.1
2018-02-04T10:40:40.455Z,9.1
2018-02-04T10:41:42.820Z,9.1
2018-02-04T10:42:45.474Z,9.1
2018-02-04T10:43:47.847Z,9.2
2018-02-04T10:44:50.496Z,9.2
2018-02-04T10:45:52.864Z,9.2
2018-02-04T10:46:55.243Z,9.2
2018-02-04T10:48:16.850Z,9.2
2018-02-04T10:49:19.554Z,9.2
2018-02-04T10:50:21.982Z,9.2
2018-02-04T10:51:24.414Z,9.2
2018-02-04T10:52:26.838Z,9.2
2018-02-04T10:53:29.268Z,9.3
2018-02-04T10:54:31.687Z,9.3
2018-02-04T10:55:34.115Z,9.3
2018-02-04T10:56:36.547Z,9.3
2018-02-04T10:57:38.976Z,9.3
2018-02-04T10:58:41.388Z,9.3
2018-02-04T10:59:43.811Z,9.3
2018-02-04T11:00:46.232Z,9.3
2018-02-04T11:01:48.658Z,9.3
2018-02-04T11:02:51.094Z,9.3
2018-02-04T11:03:53.511Z,9.3
2018-02-04T11:04:55.937Z,9.4
2018-02-04T11:05:58.367Z,9.4
2018-02-04T11:07:00.789Z,9.4
2018-02-04T11:08:03.222Z,9.4
2018-02-04T11:09:05.929Z,9.4
2018-02-04T11:10:08.358Z,9.5
2018-02-04T11:11:10.791Z,9.5
2018-02-04T11:12:13.524Z,9.5
2018-02-04T11:13:15.938Z,9.5
2018-02-04T11:14:18.360Z,9.5
2018-02-04T11:15:20.790Z,9.5
2018-02-04T11:16:23.218Z,9.6
2018-02-04T11:17:25.646Z,9.5
2018-02-04T11:18:28.351Z,9.6
2018-02-04T11:19:30.785Z,9.6
2018-02-04T11:20:33.192Z,9.6
2018-02-04T11:21:35.925Z,9.6
2018-02-04T11:22:38.348Z,9.6
2018-02-04T11:23:40.778Z,9.6
2018-02-04T11:24:43.196Z,9.6
2018-02-04T11:25:45.626Z,9.6
2018-02-04T11:26:48.052Z,9.7
2018-02-04T11:27:50.760Z,9.7
2018-02-04T11:28:53.186Z,9.7
2018-02-04T11:29:55.610Z,9.7
2018-02-04T11:30:58.034Z,9.8
2018-02-04T11:32:00.474Z,9.8
2018-02-04T11:33:02.902Z,9.7
2018-02-04T11:34:05.329Z,9.8
2018-02-04T11:35:07.742Z,9.8
2018-02-04T11:36:10.175Z,9.8
2018-02-04T11:37:12.608Z,9.8
2018-02-04T11:38:15.320Z,9.9
2018-02-04T11:39:17.735Z,9.9
2018-02-04T11:40:20.446Z,9.9
2018-02-04T11:41:22.866Z,9.9
2018-02-04T11:42:25.299Z,9.9
2018-02-04T11:43:27.720Z,9.9
2018-02-04T11:44:30.152Z,9.9
2018-02-04T11:45:32.577Z,9.9
2018-02-04T11:46:35.062Z,9.9
2018-02-04T11:47:37.439Z,9.9
2018-02-04T11:48:39.864Z,10
2018-02-04T11:49:42.298Z,10
2018-02-04T11:50:44.723Z,10
2018-02-04T11:51:47.149Z,10
2018-02-04T11:52:49.875Z,10
2018-02-04T11:53:52.293Z,10
2018-02-04T11:54:54.728Z,10
2018-02-04T11:55:57.439Z,10
2018-02-04T11:56:59.862Z,10.1
2018-02-04T11:58:02.300Z,10.1
2018-02-04T11:59:04.999Z,10
2018-02-04T12:00:07.426Z,10.1
2018-02-04T12:01:09.859Z,10.1
2018-02-04T12:02:12.279Z,10
2018-02-04T12:03:14.706Z,10.1
2018-02-04T12:04:17.138Z,10.1
2018-02-04T12:05:19.564Z,10
2018-02-04T12:06:21.992Z,10
2018-02-04T12:07:24.419Z,10
2018-02-04T12:08:26.840Z,10
2018-02-04T12:09:29.275Z,10
2018-02-04T12:10:31.705Z,10.1
2018-02-04T12:11:34.127Z,10.1
2018-02-04T12:12:36.560Z,10.1
2018-02-04T12:13:38.992Z,10.1
2018-02-04T12:14:41.422Z,10.2
2018-02-04T12:15:43.852Z,10.2
2018-02-04T12:16:46.269Z,10.2
2018-02-04T12:17:48.688Z,10.3
2018-02-04T12:18:51.175Z,10.3
2018-02-04T12:19:53.551Z,10.3
2018-02-04T12:20:55.981Z,10.3
2018-02-04T12:21:58.404Z,10.3
2018-02-04T12:23:00.832Z,10.3
2018-02-04T12:24:03.261Z,10.3
2018-02-04T12:25:05.686Z,10.3
2018-02-04T12:26:08.394Z,10.3
2018-02-04T12:27:10.822Z,10.4
2018-02-04T12:28:13.242Z,10.4
2018-02-04T12:29:15.713Z,10.4
2018-02-04T12:30:18.103Z,10.3
2018-02-04T12:31:20.526Z,10.4
2018-02-04T12:32:22.949Z,10.4
2018-02-04T12:33:25.392Z,10.4
2018-02-04T12:34:27.812Z,10.4
2018-02-04T12:35:30.243Z,10.4
2018-02-04T12:36:32.656Z,10.4
2018-02-04T12:37:35.085Z,10.4
2018-02-04T12:38:37.510Z,10.4
2018-02-04T12:39:39.938Z,10.4
2018-02-04T12:40:42.355Z,10.4
2018-02-04T12:41:44.781Z,10.4
2018-02-04T12:42:47.201Z,10.4
2018-02-04T12:43:49.639Z,10.3
2018-02-04T12:44:52.066Z,10.3
2018-02-04T12:45:54.492Z,10.3
2018-02-04T12:46:57.201Z,10.3
2018-02-04T12:47:59.632Z,10.2
2018-02-04T12:49:02.352Z,10.2
2018-02-04T12:50:05.383Z,10.2
2018-02-04T12:51:08.089Z,10.2
2018-02-04T12:52:10.800Z,10.2
2018-02-04T12:53:13.214Z,10.2
2018-02-04T12:54:15.680Z,10.2
2018-02-04T12:55:18.099Z,10.2
2018-02-04T12:56:20.527Z,10.2
2018-02-04T12:57:22.956Z,10.1
2018-02-04T12:58:25.386Z,10.1
2018-02-04T12:59:27.811Z,10.1
2018-02-04T13:00:30.249Z,10.1
2018-02-04T13:01:32.671Z,10
2018-02-04T13:02:35.104Z,10
2018-02-04T13:03:37.533Z,10
2018-02-04T13:04:39.959Z,10
2018-02-04T13:05:42.389Z,10
2018-02-04T13:06:45.111Z,10
2018-02-04T13:07:47.533Z,10
2018-02-04T13:08:49.976Z,10
2018-02-04T13:09:52.393Z,10
2018-02-04T13:10:54.825Z,10
2018-02-04T13:11:57.250Z,10
2018-02-04T13:12:59.974Z,10
2018-02-04T13:14:02.398Z,9.9
2018-02-04T13:15:04.834Z,9.9
2018-02-04T13:16:07.277Z,9.9
2018-02-04T13:17:09.951Z,9.9
2018-02-04T13:18:12.380Z,9.8
2018-02-04T13:19:14.845Z,9.8
2018-02-04T13:20:17.246Z,9.8
2018-02-04T13:21:19.664Z,9.8
2018-02-04T13:22:22.363Z,9.8
2018-02-04T13:23:24.790Z,9.9
2018-02-04T13:24:27.223Z,9.8
2018-02-04T13:25:29.651Z,9.8
2018-02-04T13:26:32.071Z,9.8
2018-02-04T13:27:34.498Z,9.8
2018-02-04T13:28:37.228Z,9.8
2018-02-04T13:29:39.652Z,9.8
2018-02-04T13:30:42.086Z,9.7
2018-02-04T13:31:44.500Z,9.6
2018-02-04T13:32:46.921Z,9.6
2018-02-04T13:33:49.362Z,9.5
2018-02-04T13:34:52.378Z,9.5
2018-02-04T13:35:54.800Z,9.5
2018-02-04T13:36:57.231Z,9.4
2018-02-04T13:37:59.661Z,9.4
2018-02-04T13:39:02.377Z,9.4
2018-02-04T13:40:04.807Z,9.3
2018-02-04T13:41:07.220Z,9.3
2018-02-04T13:42:09.645Z,9.3
2018-02-04T13:43:12.076Z,9.2
2018-02-04T13:44:14.541Z,9.2
2018-02-04T13:45:16.924Z,9.2
2018-02-04T13:46:19.349Z,9.2
2018-02-04T13:47:21.784Z,9.1
2018-02-04T13:48:24.214Z,9.1
2018-02-04T13:49:26.647Z,9.1
2018-02-04T13:50:29.065Z,9.1
2018-02-04T13:51:31.488Z,9
2018-02-04T13:52:33.922Z,9
2018-02-04T13:53:36.353Z,9
2018-02-04T13:54:38.780Z,9
2018-02-04T13:55:41.201Z,9
2018-02-04T13:56:43.622Z,9
2018-02-04T13:57:46.055Z,8.9
2018-02-04T13:58:48.478Z,8.9
2018-02-04T13:59:50.892Z,8.9
2018-02-04T14:00:53.322Z,8.8
2018-02-04T14:01:55.739Z,8.8
2018-02-04T14:02:58.163Z,8.8
2018-02-04T14:04:00.587Z,8.7
2018-02-04T14:05:03.301Z,8.7
2018-02-04T14:06:05.726Z,8.7
2018-02-04T14:07:08.167Z,8.7
2018-02-04T14:08:10.861Z,8.7
2018-02-04T14:09:13.304Z,8.8
2018-02-04T14:10:15.727Z,8.7
2018-02-04T14:11:18.467Z,8.7
2018-02-04T14:12:20.933Z,8.7
2018-02-04T14:13:23.310Z,8.7
2018-02-04T14:14:25.728Z,8.7
2018-02-04T14:15:28.159Z,8.6
2018-02-04T14:16:30.583Z,8.6
2018-02-04T14:17:33.006Z,8.6
2018-02-04T14:18:35.433Z,8.6
2018-02-04T14:19:37.859Z,8.6
2018-02-04T14:20:40.285Z,8.6
2018-02-04T14:21:42.697Z,8.7
2018-02-04T14:22:45.131Z,8.7
2018-02-04T14:23:47.558Z,8.7